sensor_id;sensor_type;location;lat;lon;timestamp;P1;durP1;ratioP1;P2;durP2;ratioP2
55112;SDS011;41006;50.920;3.456;2023-09-08T00:00:08;24.83;;;22.75;;
55112;SDS011;41006;50.920;3.456;2023-09-08T00:00:41;23.13;;;21.38;;
55112;SDS011;41006;50.920;3.456;2023-09-08T00:01:12;24.23;;;22.40;;
55112;SDS011;41006;50.920;3.456;2023-09-08T00:01:44;24.00;;;22.20;;
55112;SDS011;41006;50.920;3.456;2023-09-08T00:02:14;23.83;;;21.92;;
55112;SDS011;41006;50.920;3.456;2023-09-08T00:02:47;24.27;;;22.58;;
55112;SDS011;41006;50.920;3.456;2023-09-08T00:03:20;24.58;;;22.73;;
55112;SDS011;41006;50.920;3.456;2023-09-08T00:03:52;23.02;;;21.33;;
55112;SDS011;41006;50.920;3.456;2023-09-08T00:04:23;23.02;;;21.40;;
55112;SDS011;41006;50.920;3.456;2023-09-08T00:04:58;23.90;;;22.20;;
55112;SDS011;41006;50.920;3.456;2023-09-08T00:05:29;24.23;;;21.95;;
55112;SDS011;41006;50.920;3.456;2023-09-08T00:05:59;23.30;;;21.60;;
55112;SDS011;41006;50.920;3.456;2023-09-08T00:06:32;23.88;;;22.15;;
55112;SDS011;41006;50.920;3.456;2023-09-08T00:07:02;26.48;;;22.23;;
55112;SDS011;41006;50.920;3.456;2023-09-08T00:07:32;24.85;;;22.92;;
55112;SDS011;41006;50.920;3.456;2023-09-08T00:08:05;24.08;;;22.30;;
55112;SDS011;41006;50.920;3.456;2023-09-08T00:08:35;23.55;;;21.95;;
55112;SDS011;41006;50.920;3.456;2023-09-08T00:09:08;23.73;;;21.98;;
55112;SDS011;41006;50.920;3.456;2023-09-08T00:09:39;24.17;;;22.38;;
55112;SDS011;41006;50.920;3.456;2023-09-08T00:10:09;24.45;;;22.50;;
55112;SDS011;41006;50.920;3.456;2023-09-08T00:10:42;24.55;;;22.85;;
55112;SDS011;41006;50.920;3.456;2023-09-08T00:11:12;25.08;;;23.30;;
55112;SDS011;41006;50.920;3.456;2023-09-08T00:11:43;24.23;;;22.40;;
55112;SDS011;41006;50.920;3.456;2023-09-08T00:12:16;25.27;;;23.38;;
55112;SDS011;41006;50.920;3.456;2023-09-08T00:12:49;26.33;;;24.08;;
55112;SDS011;41006;50.920;3.456;2023-09-08T00:13:22;24.30;;;22.50;;
55112;SDS011;41006;50.920;3.456;2023-09-08T00:13:55;23.85;;;22.05;;
55112;SDS011;41006;50.920;3.456;2023-09-08T00:14:25;24.80;;;22.90;;
55112;SDS011;41006;50.920;3.456;2023-09-08T00:14:58;24.95;;;23.25;;
55112;SDS011;41006;50.920;3.456;2023-09-08T00:15:33;25.10;;;23.20;;
55112;SDS011;41006;50.920;3.456;2023-09-08T00:16:05;23.88;;;21.80;;
55112;SDS011;41006;50.920;3.456;2023-09-08T00:16:36;24.80;;;22.98;;
55112;SDS011;41006;50.920;3.456;2023-09-08T00:17:09;24.20;;;22.30;;
55112;SDS011;41006;50.920;3.456;2023-09-08T00:17:43;25.40;;;23.38;;
55112;SDS011;41006;50.920;3.456;2023-09-08T00:18:19;25.38;;;23.65;;
55112;SDS011;41006;50.920;3.456;2023-09-08T00:18:52;25.10;;;23.17;;
55112;SDS011;41006;50.920;3.456;2023-09-08T00:19:27;22.85;;;21.35;;
55112;SDS011;41006;50.920;3.456;2023-09-08T00:19:58;23.83;;;21.98;;
55112;SDS011;41006;50.920;3.456;2023-09-08T00:20:30;24.63;;;22.67;;
55112;SDS011;41006;50.920;3.456;2023-09-08T00:21:03;24.67;;;22.50;;
55112;SDS011;41006;50.920;3.456;2023-09-08T00:21:33;25.23;;;23.20;;
55112;SDS011;41006;50.920;3.456;2023-09-08T00:22:06;24.35;;;22.70;;
55112;SDS011;41006;50.920;3.456;2023-09-08T00:22:41;24.17;;;22.30;;
55112;SDS011;41006;50.920;3.456;2023-09-08T00:23:11;24.05;;;22.25;;
55112;SDS011;41006;50.920;3.456;2023-09-08T00:23:44;24.63;;;22.83;;
55112;SDS011;41006;50.920;3.456;2023-09-08T00:24:15;24.13;;;22.42;;
55112;SDS011;41006;50.920;3.456;2023-09-08T00:24:45;25.65;;;23.83;;
55112;SDS011;41006;50.920;3.456;2023-09-08T00:25:16;24.38;;;22.67;;
55112;SDS011;41006;50.920;3.456;2023-09-08T00:25:46;25.75;;;23.55;;
55112;SDS011;41006;50.920;3.456;2023-09-08T00:26:19;25.60;;;23.90;;
55112;SDS011;41006;50.920;3.456;2023-09-08T00:26:51;25.77;;;23.58;;
55112;SDS011;41006;50.920;3.456;2023-09-08T00:27:21;25.75;;;23.50;;
55112;SDS011;41006;50.920;3.456;2023-09-08T00:27:54;26.02;;;23.92;;
55112;SDS011;41006;50.920;3.456;2023-09-08T00:28:27;25.50;;;23.67;;
55112;SDS011;41006;50.920;3.456;2023-09-08T00:28:57;25.17;;;22.98;;
55112;SDS011;41006;50.920;3.456;2023-09-08T00:29:27;26.10;;;24.08;;
55112;SDS011;41006;50.920;3.456;2023-09-08T00:30:03;25.17;;;23.48;;
55112;SDS011;41006;50.920;3.456;2023-09-08T00:30:34;25.27;;;23.48;;
55112;SDS011;41006;50.920;3.456;2023-09-08T00:31:10;25.08;;;23.25;;
55112;SDS011;41006;50.920;3.456;2023-09-08T00:31:41;24.85;;;23.05;;
55112;SDS011;41006;50.920;3.456;2023-09-08T00:32:11;24.60;;;22.83;;
55112;SDS011;41006;50.920;3.456;2023-09-08T00:32:42;25.52;;;23.45;;
55112;SDS011;41006;50.920;3.456;2023-09-08T00:33:12;24.48;;;22.55;;
55112;SDS011;41006;50.920;3.456;2023-09-08T00:33:43;24.08;;;22.33;;
55112;SDS011;41006;50.920;3.456;2023-09-08T00:34:18;23.50;;;21.80;;
55112;SDS011;41006;50.920;3.456;2023-09-08T00:34:51;24.45;;;22.65;;
55112;SDS011;41006;50.920;3.456;2023-09-08T00:35:24;24.02;;;22.35;;
55112;SDS011;41006;50.920;3.456;2023-09-08T00:35:54;25.52;;;23.52;;
55112;SDS011;41006;50.920;3.456;2023-09-08T00:36:27;23.70;;;22.00;;
55112;SDS011;41006;50.920;3.456;2023-09-08T00:37:00;24.50;;;22.67;;
55112;SDS011;41006;50.920;3.456;2023-09-08T00:37:36;24.50;;;22.73;;
55112;SDS011;41006;50.920;3.456;2023-09-08T00:38:09;23.80;;;22.10;;
55112;SDS011;41006;50.920;3.456;2023-09-08T00:38:39;23.13;;;21.55;;
55112;SDS011;41006;50.920;3.456;2023-09-08T00:39:12;24.27;;;22.35;;
55112;SDS011;41006;50.920;3.456;2023-09-08T00:39:44;24.45;;;22.50;;
55112;SDS011;41006;50.920;3.456;2023-09-08T00:40:20;22.67;;;21.10;;
55112;SDS011;41006;50.920;3.456;2023-09-08T00:40:55;24.20;;;22.48;;
55112;SDS011;41006;50.920;3.456;2023-09-08T00:41:26;24.95;;;23.02;;
55112;SDS011;41006;50.920;3.456;2023-09-08T00:41:56;23.77;;;21.92;;
55112;SDS011;41006;50.920;3.456;2023-09-08T00:42:26;24.65;;;22.70;;
55112;SDS011;41006;50.920;3.456;2023-09-08T00:42:57;25.52;;;23.23;;
55112;SDS011;41006;50.920;3.456;2023-09-08T00:43:29;23.65;;;21.85;;
55112;SDS011;41006;50.920;3.456;2023-09-08T00:44:00;23.40;;;21.70;;
55112;SDS011;41006;50.920;3.456;2023-09-08T00:44:33;24.42;;;22.42;;
55112;SDS011;41006;50.920;3.456;2023-09-08T00:45:04;23.75;;;21.83;;
55112;SDS011;41006;50.920;3.456;2023-09-08T00:45:38;24.35;;;22.65;;
55112;SDS011;41006;50.920;3.456;2023-09-08T00:46:13;23.00;;;21.25;;
55112;SDS011;41006;50.920;3.456;2023-09-08T00:46:46;23.45;;;21.73;;
55112;SDS011;41006;50.920;3.456;2023-09-08T00:47:17;23.02;;;21.33;;
55112;SDS011;41006;50.920;3.456;2023-09-08T00:47:49;23.08;;;21.40;;
55112;SDS011;41006;50.920;3.456;2023-09-08T00:48:23;23.02;;;21.33;;
55112;SDS011;41006;50.920;3.456;2023-09-08T00:48:56;23.65;;;21.83;;
55112;SDS011;41006;50.920;3.456;2023-09-08T00:49:26;22.55;;;20.83;;
55112;SDS011;41006;50.920;3.456;2023-09-08T00:50:01;23.38;;;21.48;;
55112;SDS011;41006;50.920;3.456;2023-09-08T00:50:36;23.95;;;22.15;;
55112;SDS011;41006;50.920;3.456;2023-09-08T00:51:07;23.25;;;21.55;;
55112;SDS011;41006;50.920;3.456;2023-09-08T00:51:42;25.25;;;22.85;;
55112;SDS011;41006;50.920;3.456;2023-09-08T00:52:14;24.35;;;22.38;;
55112;SDS011;41006;50.920;3.456;2023-09-08T00:52:47;23.42;;;21.73;;
55112;SDS011;41006;50.920;3.456;2023-09-08T00:53:18;24.35;;;22.55;;
55112;SDS011;41006;50.920;3.456;2023-09-08T00:53:52;24.10;;;22.40;;
55112;SDS011;41006;50.920;3.456;2023-09-08T00:54:25;24.00;;;21.98;;
55112;SDS011;41006;50.920;3.456;2023-09-08T00:54:56;23.77;;;21.77;;
55112;SDS011;41006;50.920;3.456;2023-09-08T00:55:29;25.08;;;22.83;;
55112;SDS011;41006;50.920;3.456;2023-09-08T00:56:05;24.10;;;22.45;;
55112;SDS011;41006;50.920;3.456;2023-09-08T00:56:41;24.15;;;22.25;;
55112;SDS011;41006;50.920;3.456;2023-09-08T00:57:12;25.65;;;23.70;;
55112;SDS011;41006;50.920;3.456;2023-09-08T00:57:45;25.73;;;23.83;;
55112;SDS011;41006;50.920;3.456;2023-09-08T00:58:17;25.35;;;23.50;;
55112;SDS011;41006;50.920;3.456;2023-09-08T00:58:48;26.80;;;24.70;;
55112;SDS011;41006;50.920;3.456;2023-09-08T00:59:21;27.20;;;25.10;;
55112;SDS011;41006;50.920;3.456;2023-09-08T00:59:53;25.60;;;23.80;;
55112;SDS011;41006;50.920;3.456;2023-09-08T01:00:24;26.45;;;24.55;;
55112;SDS011;41006;50.920;3.456;2023-09-08T01:00:54;27.52;;;25.35;;
55112;SDS011;41006;50.920;3.456;2023-09-08T01:01:27;26.30;;;24.40;;
55112;SDS011;41006;50.920;3.456;2023-09-08T01:02:02;27.08;;;24.80;;
55112;SDS011;41006;50.920;3.456;2023-09-08T01:02:33;27.35;;;25.30;;
55112;SDS011;41006;50.920;3.456;2023-09-08T01:03:05;25.95;;;23.95;;
55112;SDS011;41006;50.920;3.456;2023-09-08T01:03:36;25.75;;;23.75;;
55112;SDS011;41006;50.920;3.456;2023-09-08T01:04:09;25.27;;;23.23;;
55112;SDS011;41006;50.920;3.456;2023-09-08T01:04:39;24.35;;;22.45;;
55112;SDS011;41006;50.920;3.456;2023-09-08T01:05:13;26.15;;;23.88;;
55112;SDS011;41006;50.920;3.456;2023-09-08T01:05:44;24.90;;;22.88;;
55112;SDS011;41006;50.920;3.456;2023-09-08T01:06:18;25.02;;;22.90;;
55112;SDS011;41006;50.920;3.456;2023-09-08T01:06:49;25.00;;;23.00;;
55112;SDS011;41006;50.920;3.456;2023-09-08T01:07:22;26.55;;;24.55;;
55112;SDS011;41006;50.920;3.456;2023-09-08T01:07:53;24.73;;;22.73;;
55112;SDS011;41006;50.920;3.456;2023-09-08T01:08:29;27.15;;;24.88;;
55112;SDS011;41006;50.920;3.456;2023-09-08T01:08:59;25.70;;;23.73;;
55112;SDS011;41006;50.920;3.456;2023-09-08T01:09:30;26.13;;;24.08;;
55112;SDS011;41006;50.920;3.456;2023-09-08T01:10:03;26.60;;;24.45;;
55112;SDS011;41006;50.920;3.456;2023-09-08T01:10:36;25.73;;;23.73;;
55112;SDS011;41006;50.920;3.456;2023-09-08T01:11:14;26.23;;;24.17;;
55112;SDS011;41006;50.920;3.456;2023-09-08T01:11:47;25.70;;;23.80;;
55112;SDS011;41006;50.920;3.456;2023-09-08T01:12:19;26.60;;;24.40;;
55112;SDS011;41006;50.920;3.456;2023-09-08T01:12:52;24.77;;;22.67;;
55112;SDS011;41006;50.920;3.456;2023-09-08T01:13:25;24.77;;;22.88;;
55112;SDS011;41006;50.920;3.456;2023-09-08T01:13:58;24.83;;;22.73;;
55112;SDS011;41006;50.920;3.456;2023-09-08T01:14:33;25.25;;;23.15;;
55112;SDS011;41006;50.920;3.456;2023-09-08T01:15:06;24.98;;;22.52;;
55112;SDS011;41006;50.920;3.456;2023-09-08T01:15:42;26.27;;;24.08;;
55112;SDS011;41006;50.920;3.456;2023-09-08T01:16:15;24.88;;;22.98;;
55112;SDS011;41006;50.920;3.456;2023-09-08T01:16:45;25.67;;;23.67;;
55112;SDS011;41006;50.920;3.456;2023-09-08T01:17:16;24.70;;;22.58;;
55112;SDS011;41006;50.920;3.456;2023-09-08T01:17:48;26.17;;;23.65;;
55112;SDS011;41006;50.920;3.456;2023-09-08T01:18:21;25.08;;;23.13;;
55112;SDS011;41006;50.920;3.456;2023-09-08T01:18:54;25.58;;;23.48;;
55112;SDS011;41006;50.920;3.456;2023-09-08T01:19:26;24.83;;;22.52;;
55112;SDS011;41006;50.920;3.456;2023-09-08T01:19:58;26.55;;;23.77;;
55112;SDS011;41006;50.920;3.456;2023-09-08T01:20:43;27.15;;;24.95;;
55112;SDS011;41006;50.920;3.456;2023-09-08T01:23:46;26.77;;;24.48;;
55112;SDS011;41006;50.920;3.456;2023-09-08T01:25:44;27.52;;;25.10;;
55112;SDS011;41006;50.920;3.456;2023-09-08T01:26:23;28.85;;;26.15;;
55112;SDS011;41006;50.920;3.456;2023-09-08T01:27:02;25.70;;;23.65;;
55112;SDS011;41006;50.920;3.456;2023-09-08T01:27:33;26.98;;;24.58;;
55112;SDS011;41006;50.920;3.456;2023-09-08T01:28:05;27.85;;;25.40;;
55112;SDS011;41006;50.920;3.456;2023-09-08T01:28:41;26.40;;;24.17;;
55112;SDS011;41006;50.920;3.456;2023-09-08T01:29:15;27.10;;;24.70;;
55112;SDS011;41006;50.920;3.456;2023-09-08T01:29:46;26.50;;;24.42;;
55112;SDS011;41006;50.920;3.456;2023-09-08T01:30:18;25.77;;;23.67;;
55112;SDS011;41006;50.920;3.456;2023-09-08T01:30:51;26.63;;;24.40;;
55112;SDS011;41006;50.920;3.456;2023-09-08T01:31:24;28.20;;;25.75;;
55112;SDS011;41006;50.920;3.456;2023-09-08T01:31:57;28.25;;;25.85;;
55112;SDS011;41006;50.920;3.456;2023-09-08T01:32:33;27.60;;;25.20;;
55112;SDS011;41006;50.920;3.456;2023-09-08T01:33:06;28.65;;;26.02;;
55112;SDS011;41006;50.920;3.456;2023-09-08T01:33:37;26.88;;;24.50;;
55112;SDS011;41006;50.920;3.456;2023-09-08T01:34:11;28.02;;;25.52;;
55112;SDS011;41006;50.920;3.456;2023-09-08T01:34:44;26.52;;;24.10;;
55112;SDS011;41006;50.920;3.456;2023-09-08T01:35:17;27.27;;;24.77;;
55112;SDS011;41006;50.920;3.456;2023-09-08T01:35:52;27.25;;;24.80;;
55112;SDS011;41006;50.920;3.456;2023-09-08T01:36:25;26.65;;;24.35;;
55112;SDS011;41006;50.920;3.456;2023-09-08T01:36:56;27.27;;;24.90;;
55112;SDS011;41006;50.920;3.456;2023-09-08T01:37:32;25.92;;;23.73;;
55112;SDS011;41006;50.920;3.456;2023-09-08T01:38:05;27.80;;;24.98;;
55112;SDS011;41006;50.920;3.456;2023-09-08T01:38:38;26.98;;;24.80;;
55112;SDS011;41006;50.920;3.456;2023-09-08T01:39:08;27.77;;;25.13;;
55112;SDS011;41006;50.920;3.456;2023-09-08T01:39:39;30.05;;;26.95;;
55112;SDS011;41006;50.920;3.456;2023-09-08T01:40:09;28.50;;;26.05;;
55112;SDS011;41006;50.920;3.456;2023-09-08T01:40:40;26.95;;;24.70;;
55112;SDS011;41006;50.920;3.456;2023-09-08T01:41:13;27.92;;;25.40;;
55112;SDS011;41006;50.920;3.456;2023-09-08T01:41:43;27.67;;;25.20;;
55112;SDS011;41006;50.920;3.456;2023-09-08T01:42:13;29.17;;;26.40;;
55112;SDS011;41006;50.920;3.456;2023-09-08T01:42:47;27.45;;;25.10;;
55112;SDS011;41006;50.920;3.456;2023-09-08T01:43:20;27.35;;;24.80;;
55112;SDS011;41006;50.920;3.456;2023-09-08T01:43:50;26.67;;;24.48;;
55112;SDS011;41006;50.920;3.456;2023-09-08T01:44:21;26.77;;;24.48;;
55112;SDS011;41006;50.920;3.456;2023-09-08T01:44:51;27.48;;;25.17;;
55112;SDS011;41006;50.920;3.456;2023-09-08T01:45:24;27.08;;;24.67;;
55112;SDS011;41006;50.920;3.456;2023-09-08T01:45:56;27.58;;;25.30;;
55112;SDS011;41006;50.920;3.456;2023-09-08T01:46:29;28.80;;;26.05;;
55112;SDS011;41006;50.920;3.456;2023-09-08T01:46:59;27.48;;;25.25;;
55112;SDS011;41006;50.920;3.456;2023-09-08T01:47:34;27.65;;;25.30;;
55112;SDS011;41006;50.920;3.456;2023-09-08T01:48:07;27.83;;;25.55;;
55112;SDS011;41006;50.920;3.456;2023-09-08T01:48:40;27.30;;;24.95;;
55112;SDS011;41006;50.920;3.456;2023-09-08T01:49:13;27.65;;;25.30;;
55112;SDS011;41006;50.920;3.456;2023-09-08T01:49:46;27.45;;;24.83;;
55112;SDS011;41006;50.920;3.456;2023-09-08T01:50:16;25.90;;;23.70;;
55112;SDS011;41006;50.920;3.456;2023-09-08T01:50:51;27.15;;;24.85;;
55112;SDS011;41006;50.920;3.456;2023-09-08T01:51:22;27.00;;;24.90;;
55112;SDS011;41006;50.920;3.456;2023-09-08T01:51:55;27.77;;;25.58;;
55112;SDS011;41006;50.920;3.456;2023-09-08T01:52:26;26.20;;;24.02;;
55112;SDS011;41006;50.920;3.456;2023-09-08T01:52:57;27.70;;;25.17;;
55112;SDS011;41006;50.920;3.456;2023-09-08T01:53:29;27.77;;;25.17;;
55112;SDS011;41006;50.920;3.456;2023-09-08T01:54:02;27.60;;;24.95;;
55112;SDS011;41006;50.920;3.456;2023-09-08T01:54:35;26.92;;;24.73;;
55112;SDS011;41006;50.920;3.456;2023-09-08T01:55:08;25.88;;;23.90;;
55112;SDS011;41006;50.920;3.456;2023-09-08T01:55:42;28.50;;;25.88;;
55112;SDS011;41006;50.920;3.456;2023-09-08T01:56:15;28.42;;;26.13;;
55112;SDS011;41006;50.920;3.456;2023-09-08T01:56:45;27.52;;;25.13;;
55112;SDS011;41006;50.920;3.456;2023-09-08T01:57:23;29.02;;;26.73;;
55112;SDS011;41006;50.920;3.456;2023-09-08T01:57:55;28.05;;;25.77;;
55112;SDS011;41006;50.920;3.456;2023-09-08T01:58:26;28.33;;;25.85;;
55112;SDS011;41006;50.920;3.456;2023-09-08T01:58:56;28.92;;;26.50;;
55112;SDS011;41006;50.920;3.456;2023-09-08T01:59:29;27.83;;;25.33;;
55112;SDS011;41006;50.920;3.456;2023-09-08T01:59:59;27.63;;;25.50;;
55112;SDS011;41006;50.920;3.456;2023-09-08T02:00:32;29.45;;;26.70;;
55112;SDS011;41006;50.920;3.456;2023-09-08T02:01:05;27.60;;;25.45;;
55112;SDS011;41006;50.920;3.456;2023-09-08T02:01:38;28.25;;;26.05;;
55112;SDS011;41006;50.920;3.456;2023-09-08T02:02:13;28.52;;;26.23;;
55112;SDS011;41006;50.920;3.456;2023-09-08T02:02:43;27.63;;;25.48;;
55112;SDS011;41006;50.920;3.456;2023-09-08T02:03:14;27.55;;;25.25;;
55112;SDS011;41006;50.920;3.456;2023-09-08T02:03:45;27.80;;;25.45;;
55112;SDS011;41006;50.920;3.456;2023-09-08T02:04:15;25.92;;;23.83;;
55112;SDS011;41006;50.920;3.456;2023-09-08T02:04:48;26.73;;;24.33;;
55112;SDS011;41006;50.920;3.456;2023-09-08T02:05:21;26.83;;;24.27;;
55112;SDS011;41006;50.920;3.456;2023-09-08T02:05:58;26.17;;;24.08;;
55112;SDS011;41006;50.920;3.456;2023-09-08T02:06:30;26.58;;;24.33;;
55112;SDS011;41006;50.920;3.456;2023-09-08T02:07:03;27.05;;;24.27;;
55112;SDS011;41006;50.920;3.456;2023-09-08T02:07:37;26.45;;;24.30;;
55112;SDS011;41006;50.920;3.456;2023-09-08T02:08:09;26.58;;;24.25;;
55112;SDS011;41006;50.920;3.456;2023-09-08T02:08:42;25.75;;;23.45;;
55112;SDS011;41006;50.920;3.456;2023-09-08T02:09:14;25.63;;;23.52;;
55112;SDS011;41006;50.920;3.456;2023-09-08T02:09:44;24.20;;;22.10;;
55112;SDS011;41006;50.920;3.456;2023-09-08T02:10:15;24.17;;;22.35;;
55112;SDS011;41006;50.920;3.456;2023-09-08T02:10:45;24.80;;;22.73;;
55112;SDS011;41006;50.920;3.456;2023-09-08T02:11:20;25.02;;;23.08;;
55112;SDS011;41006;50.920;3.456;2023-09-08T02:11:50;24.65;;;22.52;;
55112;SDS011;41006;50.920;3.456;2023-09-08T02:12:23;24.90;;;22.85;;
55112;SDS011;41006;50.920;3.456;2023-09-08T02:12:56;25.17;;;23.15;;
55112;SDS011;41006;50.920;3.456;2023-09-08T02:13:26;25.30;;;23.33;;
55112;SDS011;41006;50.920;3.456;2023-09-08T02:13:57;24.08;;;22.15;;
55112;SDS011;41006;50.920;3.456;2023-09-08T02:14:27;24.83;;;22.88;;
55112;SDS011;41006;50.920;3.456;2023-09-08T02:14:57;25.27;;;23.10;;
55112;SDS011;41006;50.920;3.456;2023-09-08T02:15:39;24.98;;;23.08;;
55112;SDS011;41006;50.920;3.456;2023-09-08T02:16:14;24.83;;;22.90;;
55112;SDS011;41006;50.920;3.456;2023-09-08T02:16:49;25.02;;;23.05;;
55112;SDS011;41006;50.920;3.456;2023-09-08T02:17:20;24.75;;;22.85;;
55112;SDS011;41006;50.920;3.456;2023-09-08T02:17:52;25.98;;;23.83;;
55112;SDS011;41006;50.920;3.456;2023-09-08T02:18:25;23.80;;;22.00;;
55112;SDS011;41006;50.920;3.456;2023-09-08T02:18:55;26.00;;;23.63;;
55112;SDS011;41006;50.920;3.456;2023-09-08T02:19:31;25.08;;;23.02;;
55112;SDS011;41006;50.920;3.456;2023-09-08T02:20:01;26.20;;;24.13;;
55112;SDS011;41006;50.920;3.456;2023-09-08T02:20:34;25.02;;;23.00;;
55112;SDS011;41006;50.920;3.456;2023-09-08T02:21:10;24.75;;;22.70;;
55112;SDS011;41006;50.920;3.456;2023-09-08T02:21:43;24.73;;;22.67;;
55112;SDS011;41006;50.920;3.456;2023-09-08T02:22:18;24.40;;;22.30;;
55112;SDS011;41006;50.920;3.456;2023-09-08T02:22:53;26.30;;;23.80;;
55112;SDS011;41006;50.920;3.456;2023-09-08T02:23:24;25.95;;;23.75;;
55112;SDS011;41006;50.920;3.456;2023-09-08T02:23:59;25.83;;;23.83;;
55112;SDS011;41006;50.920;3.456;2023-09-08T02:24:31;24.08;;;22.30;;
55112;SDS011;41006;50.920;3.456;2023-09-08T02:25:04;24.98;;;22.90;;
55112;SDS011;41006;50.920;3.456;2023-09-08T02:25:37;26.20;;;23.95;;
55112;SDS011;41006;50.920;3.456;2023-09-08T02:26:08;25.83;;;23.73;;
55112;SDS011;41006;50.920;3.456;2023-09-08T02:26:38;25.85;;;23.52;;
55112;SDS011;41006;50.920;3.456;2023-09-08T02:27:12;25.40;;;23.48;;
55112;SDS011;41006;50.920;3.456;2023-09-08T02:27:44;25.75;;;23.48;;
55112;SDS011;41006;50.920;3.456;2023-09-08T02:28:15;25.30;;;23.17;;
55112;SDS011;41006;50.920;3.456;2023-09-08T02:28:45;25.38;;;23.50;;
55112;SDS011;41006;50.920;3.456;2023-09-08T02:29:18;24.75;;;22.75;;
55112;SDS011;41006;50.920;3.456;2023-09-08T02:29:52;25.38;;;23.48;;
55112;SDS011;41006;50.920;3.456;2023-09-08T02:30:23;25.88;;;23.60;;
55112;SDS011;41006;50.920;3.456;2023-09-08T02:30:53;26.45;;;24.35;;
55112;SDS011;41006;50.920;3.456;2023-09-08T02:31:24;25.58;;;23.67;;
55112;SDS011;41006;50.920;3.456;2023-09-08T02:31:56;25.55;;;23.52;;
55112;SDS011;41006;50.920;3.456;2023-09-08T02:32:26;25.33;;;23.23;;
55112;SDS011;41006;50.920;3.456;2023-09-08T02:32:57;24.73;;;22.70;;
55112;SDS011;41006;50.920;3.456;2023-09-08T02:33:32;24.50;;;22.35;;
55112;SDS011;41006;50.920;3.456;2023-09-08T02:34:04;23.63;;;21.73;;
55112;SDS011;41006;50.920;3.456;2023-09-08T02:34:35;21.90;;;20.30;;
55112;SDS011;41006;50.920;3.456;2023-09-08T02:35:09;21.00;;;19.55;;
55112;SDS011;41006;50.920;3.456;2023-09-08T02:35:43;23.08;;;21.27;;
55112;SDS011;41006;50.920;3.456;2023-09-08T02:36:16;22.48;;;20.67;;
55112;SDS011;41006;50.920;3.456;2023-09-08T02:36:55;22.48;;;20.80;;
55112;SDS011;41006;50.920;3.456;2023-09-08T02:37:25;23.40;;;21.60;;
55112;SDS011;41006;50.920;3.456;2023-09-08T02:37:55;23.38;;;21.42;;
55112;SDS011;41006;50.920;3.456;2023-09-08T02:38:26;22.95;;;21.15;;
55112;SDS011;41006;50.920;3.456;2023-09-08T02:38:56;22.63;;;20.58;;
55112;SDS011;41006;50.920;3.456;2023-09-08T02:39:27;26.17;;;21.33;;
55112;SDS011;41006;50.920;3.456;2023-09-08T02:40:00;21.98;;;20.27;;
55112;SDS011;41006;50.920;3.456;2023-09-08T02:40:30;22.77;;;20.85;;
55112;SDS011;41006;50.920;3.456;2023-09-08T02:41:03;22.20;;;20.30;;
55112;SDS011;41006;50.920;3.456;2023-09-08T02:41:33;21.27;;;19.58;;
55112;SDS011;41006;50.920;3.456;2023-09-08T02:42:06;23.33;;;21.48;;
55112;SDS011;41006;50.920;3.456;2023-09-08T02:42:36;22.27;;;20.58;;
55112;SDS011;41006;50.920;3.456;2023-09-08T02:43:09;22.55;;;20.42;;
55112;SDS011;41006;50.920;3.456;2023-09-08T02:43:40;22.75;;;20.77;;
55112;SDS011;41006;50.920;3.456;2023-09-08T02:44:13;22.55;;;20.70;;
55112;SDS011;41006;50.920;3.456;2023-09-08T02:44:43;21.38;;;19.67;;
55112;SDS011;41006;50.920;3.456;2023-09-08T02:45:13;21.80;;;20.10;;
55112;SDS011;41006;50.920;3.456;2023-09-08T02:45:44;21.92;;;20.02;;
55112;SDS011;41006;50.920;3.456;2023-09-08T02:46:16;21.63;;;19.83;;
55112;SDS011;41006;50.920;3.456;2023-09-08T02:46:47;21.80;;;20.17;;
55112;SDS011;41006;50.920;3.456;2023-09-08T02:47:18;21.35;;;19.50;;
55112;SDS011;41006;50.920;3.456;2023-09-08T02:47:50;21.85;;;20.05;;
55112;SDS011;41006;50.920;3.456;2023-09-08T02:48:20;22.60;;;20.83;;
55112;SDS011;41006;50.920;3.456;2023-09-08T02:48:51;22.70;;;20.67;;
55112;SDS011;41006;50.920;3.456;2023-09-08T02:49:24;22.33;;;20.40;;
55112;SDS011;41006;50.920;3.456;2023-09-08T02:49:57;22.30;;;20.63;;
55112;SDS011;41006;50.920;3.456;2023-09-08T02:50:27;21.38;;;19.67;;
55112;SDS011;41006;50.920;3.456;2023-09-08T02:51:00;21.67;;;20.08;;
55112;SDS011;41006;50.920;3.456;2023-09-08T02:51:31;21.83;;;20.08;;
55112;SDS011;41006;50.920;3.456;2023-09-08T02:52:01;22.20;;;20.42;;
55112;SDS011;41006;50.920;3.456;2023-09-08T02:52:34;21.95;;;20.15;;
55112;SDS011;41006;50.920;3.456;2023-09-08T02:53:04;20.23;;;18.63;;
55112;SDS011;41006;50.920;3.456;2023-09-08T02:53:37;21.30;;;19.50;;
55112;SDS011;41006;50.920;3.456;2023-09-08T02:54:10;21.02;;;19.23;;
55112;SDS011;41006;50.920;3.456;2023-09-08T02:54:40;21.60;;;19.50;;
55112;SDS011;41006;50.920;3.456;2023-09-08T02:55:13;20.33;;;18.63;;
55112;SDS011;41006;50.920;3.456;2023-09-08T02:55:44;20.65;;;18.90;;
55112;SDS011;41006;50.920;3.456;2023-09-08T02:56:20;21.15;;;19.35;;
55112;SDS011;41006;50.920;3.456;2023-09-08T02:56:58;21.17;;;19.27;;
55112;SDS011;41006;50.920;3.456;2023-09-08T02:57:28;21.38;;;19.73;;
55112;SDS011;41006;50.920;3.456;2023-09-08T02:58:01;21.95;;;20.05;;
55112;SDS011;41006;50.920;3.456;2023-09-08T02:58:32;21.05;;;19.45;;
55112;SDS011;41006;50.920;3.456;2023-09-08T02:59:05;21.40;;;19.70;;
55112;SDS011;41006;50.920;3.456;2023-09-08T02:59:36;21.83;;;20.02;;
55112;SDS011;41006;50.920;3.456;2023-09-08T03:00:08;22.27;;;20.58;;
55112;SDS011;41006;50.920;3.456;2023-09-08T03:00:39;22.23;;;20.17;;
55112;SDS011;41006;50.920;3.456;2023-09-08T03:01:15;21.33;;;19.73;;
55112;SDS011;41006;50.920;3.456;2023-09-08T03:01:50;21.73;;;19.90;;
55112;SDS011;41006;50.920;3.456;2023-09-08T03:02:20;22.08;;;20.27;;
55112;SDS011;41006;50.920;3.456;2023-09-08T03:02:51;21.63;;;19.92;;
55112;SDS011;41006;50.920;3.456;2023-09-08T03:03:21;19.98;;;18.27;;
55112;SDS011;41006;50.920;3.456;2023-09-08T03:03:56;21.02;;;19.27;;
55112;SDS011;41006;50.920;3.456;2023-09-08T03:04:29;21.30;;;19.38;;
55112;SDS011;41006;50.920;3.456;2023-09-08T03:05:02;20.33;;;18.35;;
55112;SDS011;41006;50.920;3.456;2023-09-08T03:05:32;20.95;;;18.95;;
55112;SDS011;41006;50.920;3.456;2023-09-08T03:06:03;20.55;;;18.73;;
55112;SDS011;41006;50.920;3.456;2023-09-08T03:06:35;20.52;;;18.63;;
55112;SDS011;41006;50.920;3.456;2023-09-08T03:07:06;19.30;;;17.90;;
55112;SDS011;41006;50.920;3.456;2023-09-08T03:07:38;20.77;;;19.05;;
55112;SDS011;41006;50.920;3.456;2023-09-08T03:08:11;20.58;;;19.08;;
55112;SDS011;41006;50.920;3.456;2023-09-08T03:08:44;21.63;;;19.48;;
55112;SDS011;41006;50.920;3.456;2023-09-08T03:09:14;21.38;;;19.30;;
55112;SDS011;41006;50.920;3.456;2023-09-08T03:09:44;21.83;;;19.92;;
55112;SDS011;41006;50.920;3.456;2023-09-08T03:10:19;20.38;;;18.67;;
55112;SDS011;41006;50.920;3.456;2023-09-08T03:10:54;21.00;;;19.08;;
55112;SDS011;41006;50.920;3.456;2023-09-08T03:11:29;21.70;;;19.85;;
55112;SDS011;41006;50.920;3.456;2023-09-08T03:12:07;21.25;;;19.40;;
55112;SDS011;41006;50.920;3.456;2023-09-08T03:12:40;20.92;;;19.33;;
55112;SDS011;41006;50.920;3.456;2023-09-08T03:13:15;20.30;;;18.75;;